Flight Track Log - Related Links

Times and Time Zones

All times are in EST time to prevent confusion due to time zone crossing. See the SAS1711 flight status page for this flight to view local times or setup timezone preferences in your user account.


Time Position Orientation Groundspeed Altitude Reporting Facility
EST Latitude Longitude Course Direction KTS MPH feet Rate Location/Type
Fri 02:36:00 AM 60.1097 24.2602 240° Southwest  Level Estimated
Fri 02:37:00 AM 60.0572 24.0858 239° Southwest  Level Estimated
Fri 02:38:00 AM 60.0046 23.9120 239° Southwest  Level Estimated
Fri 02:39:00 AM 59.9516 23.7387 239° Southwest  Level Estimated
Fri 02:40:00 AM 59.8985 23.5660 239° Southwest  Level Estimated
Fri 02:41:00 AM 59.8451 23.3938 238° Southwest  Level Estimated
Fri 02:42:00 AM 59.7915 23.2222 238° Southwest  Level Estimated
Fri 02:43:00 AM 59.7377 23.0511 238° Southwest  Level Estimated
Fri 02:44:00 AM 59.6837 22.8806 238° Southwest  Level Estimated
Fri 02:45:00 AM 59.6294 22.7106 238° Southwest  Level Estimated
Fri 02:46:00 AM 59.5750 22.5412 238° Southwest  Level Estimated
Fri 02:47:00 AM 59.5203 22.3724 237° Southwest  Level Estimated
Fri 02:48:00 AM 59.4654 22.2040 237° Southwest  Level Estimated
Fri 02:49:00 AM 59.4102 22.0363 237° Southwest  Level Estimated
Fri 02:50:00 AM 59.3549 21.8690 237° Southwest  Level Estimated
Fri 02:51:00 AM 59.2993 21.7024 237° Southwest  Level Estimated
Fri 02:52:00 AM 59.2436 21.5362 237° Southwest  Level Estimated
Fri 02:53:00 AM 59.1876 21.3706 237° Southwest  Level Estimated
Fri 02:54:00 AM 59.1314 21.2056 236° Southwest  Level Estimated
Fri 02:55:00 AM 59.0750 21.0411 236° Southwest  Level Estimated
Fri 02:56:00 AM 59.0184 20.8771 236° Southwest  Level Estimated
Fri 02:57:00 AM 58.9616 20.7137 236° Southwest  Level Estimated
Fri 02:58:00 AM 58.9046 20.5508 236° Southwest  Level Estimated
Fri 02:59:00 AM 58.8474 20.3884 236° Southwest  Level Estimated
Fri 03:00:00 AM 58.7899 20.2266 236° Southwest  Level Estimated
Fri 03:01:00 AM 58.7323 20.0653 236° Southwest  Level Estimated
Fri 03:02:00 AM 58.6745 19.9046 235° Southwest  Level Estimated
Fri 03:03:00 AM 58.6165 19.7444 235° Southwest  Level Estimated
Fri 03:04:00 AM 58.5583 19.5847 235° Southwest  Level Estimated
Fri 03:05:00 AM 58.4998 19.4255 235° Southwest  Level Estimated
Fri 03:06:00 AM 58.4412 19.2669 235° Southwest  Level Estimated
Fri 03:07:00 AM 58.3824 19.1088 235° Southwest  Level Estimated
Fri 03:08:00 AM 58.3234 18.9513 235° Southwest  Level Estimated
Fri 03:09:00 AM 58.2642 18.7942 234° Southwest  Level Estimated
Fri 03:10:00 AM 58.2048 18.6377 234° Southwest  Level Estimated
Fri 03:11:00 AM 58.1452 18.4817 234° Southwest  Level Estimated
Fri 03:12:00 AM 58.0855 18.3262 234° Southwest  Level Estimated
Fri 03:13:00 AM 58.0255 18.1713 234° Southwest  Level Estimated
Fri 03:14:00 AM 57.9654 18.0168 234° Southwest  Level Estimated
Fri 03:15:00 AM 57.9050 17.8629 234° Southwest  Level Estimated
Fri 03:16:00 AM 57.8445 17.7095 233° Southwest  Level Estimated
Fri 03:17:00 AM 57.7838 17.5567 233° Southwest  Level Estimated
Fri 03:18:00 AM 57.7229 17.4043 233° Southwest  Level Estimated
Fri 03:19:00 AM 57.6618 17.2524 233° Southwest  Level Estimated
Fri 03:20:00 AM 57.6006 17.1011 233° Southwest  Level Estimated
Fri 03:21:00 AM 57.5392 16.9503 233° Southwest  Level Estimated
Fri 03:22:00 AM 57.4776 16.7999 233° Southwest  Level Estimated
Fri 03:23:00 AM 57.4158 16.6501 233° Southwest  Level Estimated
Fri 03:24:00 AM 57.3538 16.5008 232° Southwest  Level Estimated
Fri 03:25:00 AM 57.2916 16.3520 232° Southwest  Level Estimated
Fri 03:26:00 AM 57.2293 16.2037 232° Southwest  Level Estimated
Fri 03:27:00 AM 57.1626 16.0459 232° Southwest  Level Estimated
Fri 03:28:00 AM 57.0957 15.8887 232° Southwest  Level Estimated
Fri 03:29:00 AM 57.0286 15.7321 232° Southwest  Level Estimated
Fri 03:30:00 AM 56.9613 15.5760 232° Southwest  Level Estimated
Fri 03:31:00 AM 56.8938 15.4205 232° Southwest  Level Estimated
Fri 03:32:00 AM 56.8261 15.2656 231° Southwest  Level Estimated
Fri 03:33:00 AM 56.7582 15.1112 231° Southwest  Level Estimated
Fri 03:34:00 AM 56.6901 14.9573 231° Southwest  Level Estimated
Fri 03:35:00 AM 56.6219 14.8041 231° Southwest  Level Estimated
Fri 03:36:00 AM 56.5534 14.6514 231° Southwest  Level Estimated
Fri 03:37:00 AM 56.4848 14.4992 231° Southwest  Level Estimated
Fri 03:38:00 AM 56.4160 14.3476 231° Southwest  Level Estimated
Fri 03:39:00 AM 56.3470 14.1965 231° Southwest  Level Estimated
Fri 03:40:00 AM 56.2778 14.0460 230° Southwest  Level Estimated
Fri 03:41:00 AM 56.2084 13.8960 230° Southwest  Level Estimated
Fri 03:42:00 AM 56.1388 13.7466 230° Southwest  Level Estimated
Fri 03:43:00 AM 56.0691 13.5977 230° Southwest  Level Estimated
Fri 03:44:00 AM 55.9992 13.4493 230° Southwest  Level Estimated
Fri 03:45:00 AM 55.9291 13.3015 230° Southwest  Level Estimated
Fri 03:46:00 AM 55.8588 13.1542 230° Southwest  Level Estimated
Fri 03:47:00 AM 55.7884 13.0075 230° Southwest  Level Estimated
Fri 03:48:00 AM 55.7178 12.8613 229° Southwest  Level Estimated
Fri 03:49:00 AM 55.6470 12.7156 229° Southwest  Level Estimated
Fri 03:50:00 AM 55.6179 12.6560 229° Southwest  Level Estimated
Fri 03:51:00 AM 55.6179 12.6560 159° South  Level Estimated
Fri 03:52:00 AM 55.6179 12.6560 159° South  Level Estimated
Fri 03:53:00 AM 55.6179 12.6560 159° South  Level Estimated
Fri 03:54:00 AM 55.6179 12.6560 159° South  Level Estimated
Fri 03:55:00 AM 55.6179 12.6560 159° South  Level Estimated
Fri 03:56:00 AM 55.6179 12.6560 159° South  Level Estimated
Fri 03:57:00 AM 55.6179 12.6560 159° South  Level Estimated
Fri 03:58:00 AM 55.6179 12.6560 159° South  Level Estimated

Login

Don't have an account? Register now (free) for customized features, flight alerts, and more!